Ana Sayfa
METAR-TAF:

METAR-TAF

Havaalanları :

Jackson, Mississipi, Amerika Birleşik Devletleri

Enlem: 32-19-11N, Boylam: 090-04-39W, yükseklik: 105 m

Güncel hava durumu gözlemi

Rapor saat 16:54 UTC de 1 saat ve 14 dakika önce yapıldı.
Rüzgar güneybatıdan 3 kt
Sıcaklık 33°C
Nem 56%
Basınç 1015 hPa
Görüş mesafesi: 16.1 km
Açık gökyüzü

METAR: KJAN 251654Z 22003KT 10SM CLR 33/23 A2998 RMK AO2 SLP147 T03330233 $

Saat: 13:08 (18:08 UTC)

Tahmin

Rapor saat 17:34 UTC de 34 dakika önce yapıldı.
Ayın 25'si saat 18 UTC'den ayın 26'si saat 18 UTC'ye kadar geçerli Tahmin
Rüzgar güneybatıdan 4 kt
Görüş mesafesi: 10 km
5000 ft yükseklikte parçalı bulutlu

TAF: KJAN 251734Z 2518/2618 23004KT P6SM SCT050

4.000'den fazla havaalanı için hava durumu gözlemleri ve tahminleri (METAR ve TAF raporları).

Kullanılabilir istasyonlar harita üzerinde sarı ve kırmızı noktalarla gösterilir.

İstasyonun adını görmek için fareyi noktanın üzerinde gezdirin.

Sonrasında hava gözlem ve tahminlerini görmek için tıklayın.

Haritayı değiştirmek için: yaklaştırmak için siyah artı işaretli yeşil düğmeye ve uzaklaştırmak için de eksi işaretli düğmeye hızla tıklayın; bitişik haritalar için yeşil okları kullanın.


METAR-TAF: